sensor_id;sensor_type;location;lat;lon;timestamp;pressure;altitude;pressure_sealevel;temperature;humidity
77469;BME280;66567;50.272;12.818;2023-02-08T00:00:06;98134;;;-9.3;64.0
77469;BME280;66567;50.272;12.818;2023-02-08T00:02:05;98135;;;-9.3;64.1
77469;BME280;66567;50.272;12.818;2023-02-08T00:04:05;98136;;;-9.4;64.1
77469;BME280;66567;50.272;12.818;2023-02-08T00:06:06;98136;;;-9.4;64.0
77469;BME280;66567;50.272;12.818;2023-02-08T00:08:05;98137;;;-9.4;63.5
77469;BME280;66567;50.272;12.818;2023-02-08T00:10:05;98137;;;-9.4;63.5
77469;BME280;66567;50.272;12.818;2023-02-08T00:12:05;98138;;;-9.4;63.5
77469;BME280;66567;50.272;12.818;2023-02-08T00:14:05;98138;;;-9.5;64.0
77469;BME280;66567;50.272;12.818;2023-02-08T00:16:06;98139;;;-9.5;64.5
77469;BME280;66567;50.272;12.818;2023-02-08T00:18:05;98139;;;-9.5;64.4
77469;BME280;66567;50.272;12.818;2023-02-08T00:20:05;98138;;;-9.5;64.2
77469;BME280;66567;50.272;12.818;2023-02-08T00:22:05;98137;;;-9.5;63.7
77469;BME280;66567;50.272;12.818;2023-02-08T00:24:05;98137;;;-9.5;64.0
77469;BME280;66567;50.272;12.818;2023-02-08T00:26:05;98138;;;-9.6;64.4
77469;BME280;66567;50.272;12.818;2023-02-08T00:28:06;98140;;;-9.6;65.0
77469;BME280;66567;50.272;12.818;2023-02-08T00:30:06;98141;;;-9.6;65.6
77469;BME280;66567;50.272;12.818;2023-02-08T00:32:05;98141;;;-9.6;65.5
77469;BME280;66567;50.272;12.818;2023-02-08T00:34:05;98141;;;-9.6;65.4
77469;BME280;66567;50.272;12.818;2023-02-08T00:36:06;98143;;;-9.5;65.5
77469;BME280;66567;50.272;12.818;2023-02-08T00:38:05;98144;;;-9.5;65.9
77469;BME280;66567;50.272;12.818;2023-02-08T00:40:05;98145;;;-9.5;65.4
77469;BME280;66567;50.272;12.818;2023-02-08T00:42:05;98145;;;-9.5;66.1
77469;BME280;66567;50.272;12.818;2023-02-08T00:44:05;98144;;;-9.5;66.1
77469;BME280;66567;50.272;12.818;2023-02-08T00:46:07;98141;;;-9.5;65.9
77469;BME280;66567;50.272;12.818;2023-02-08T00:48:05;98143;;;-9.5;65.4
77469;BME280;66567;50.272;12.818;2023-02-08T00:50:05;98146;;;-9.5;66.3
77469;BME280;66567;50.272;12.818;2023-02-08T00:52:05;98147;;;-9.5;65.7
77469;BME280;66567;50.272;12.818;2023-02-08T00:54:05;98147;;;-9.5;65.3
77469;BME280;66567;50.272;12.818;2023-02-08T00:56:06;98150;;;-9.5;65.4
77469;BME280;66567;50.272;12.818;2023-02-08T00:58:05;98152;;;-9.5;65.4
77469;BME280;66567;50.272;12.818;2023-02-08T01:00:06;98152;;;-9.5;65.5
77469;BME280;66567;50.272;12.818;2023-02-08T01:02:05;98151;;;-9.5;65.8
77469;BME280;66567;50.272;12.818;2023-02-08T01:04:05;98151;;;-9.5;65.7
77469;BME280;66567;50.272;12.818;2023-02-08T01:06:08;98154;;;-9.5;65.3
77469;BME280;66567;50.272;12.818;2023-02-08T01:08:05;98154;;;-9.5;65.1
77469;BME280;66567;50.272;12.818;2023-02-08T01:10:06;98153;;;-9.5;65.3
77469;BME280;66567;50.272;12.818;2023-02-08T01:12:05;98154;;;-9.6;65.0
77469;BME280;66567;50.272;12.818;2023-02-08T01:14:05;98155;;;-9.6;65.2
77469;BME280;66567;50.272;12.818;2023-02-08T01:16:09;98154;;;-9.6;64.8
77469;BME280;66567;50.272;12.818;2023-02-08T01:18:05;98151;;;-9.6;65.4
77469;BME280;66567;50.272;12.818;2023-02-08T01:20:06;98149;;;-9.6;64.6
77469;BME280;66567;50.272;12.818;2023-02-08T01:22:05;98147;;;-9.6;63.5
77469;BME280;66567;50.272;12.818;2023-02-08T01:24:05;98146;;;-9.6;63.3
77469;BME280;66567;50.272;12.818;2023-02-08T01:26:06;98142;;;-9.7;62.9
77469;BME280;66567;50.272;12.818;2023-02-08T01:28:05;98141;;;-9.7;62.5
77469;BME280;66567;50.272;12.818;2023-02-08T01:30:06;98139;;;-9.8;63.0
77469;BME280;66567;50.272;12.818;2023-02-08T01:32:05;98136;;;-9.8;62.4
77469;BME280;66567;50.272;12.818;2023-02-08T01:34:06;98141;;;-9.8;63.2
77469;BME280;66567;50.272;12.818;2023-02-08T01:36:06;98146;;;-9.9;62.8
77469;BME280;66567;50.272;12.818;2023-02-08T01:38:05;98147;;;-9.9;63.2
77469;BME280;66567;50.272;12.818;2023-02-08T01:40:06;98146;;;-9.9;64.4
77469;BME280;66567;50.272;12.818;2023-02-08T01:42:05;98144;;;-9.9;64.1
77469;BME280;66567;50.272;12.818;2023-02-08T01:46:05;98139;;;-9.9;64.8
77469;BME280;66567;50.272;12.818;2023-02-08T01:48:09;98140;;;-9.9;64.5
77469;BME280;66567;50.272;12.818;2023-02-08T01:50:05;98142;;;-9.9;64.3
77469;BME280;66567;50.272;12.818;2023-02-08T01:52:13;98144;;;-10.0;64.6
77469;BME280;66567;50.272;12.818;2023-02-08T01:54:06;98143;;;-10.0;64.9
77469;BME280;66567;50.272;12.818;2023-02-08T01:56:14;98145;;;-10.0;65.3
77469;BME280;66567;50.272;12.818;2023-02-08T01:58:08;98146;;;-10.0;65.6
77469;BME280;66567;50.272;12.818;2023-02-08T02:00:11;98145;;;-9.9;65.1
77469;BME280;66567;50.272;12.818;2023-02-08T02:02:07;98146;;;-9.9;65.2
77469;BME280;66567;50.272;12.818;2023-02-08T02:04:06;98146;;;-9.9;64.3
77469;BME280;66567;50.272;12.818;2023-02-08T02:06:13;98146;;;-10.0;63.8
77469;BME280;66567;50.272;12.818;2023-02-08T02:08:06;98149;;;-10.0;63.8
77469;BME280;66567;50.272;12.818;2023-02-08T02:10:09;98149;;;-10.0;64.1
77469;BME280;66567;50.272;12.818;2023-02-08T02:12:06;98153;;;-10.1;63.9
77469;BME280;66567;50.272;12.818;2023-02-08T02:14:05;98154;;;-10.1;63.8
77469;BME280;66567;50.272;12.818;2023-02-08T02:16:05;98151;;;-10.1;65.2
77469;BME280;66567;50.272;12.818;2023-02-08T02:18:06;98149;;;-10.1;65.9
77469;BME280;66567;50.272;12.818;2023-02-08T02:26:20;98140;;;-10.1;63.0
77469;BME280;66567;50.272;12.818;2023-02-08T02:28:21;98142;;;-10.2;62.8
77469;BME280;66567;50.272;12.818;2023-02-08T02:34:14;98148;;;-10.3;62.6
77469;BME280;66567;50.272;12.818;2023-02-08T02:36:08;98148;;;-10.3;62.9
77469;BME280;66567;50.272;12.818;2023-02-08T02:38:19;98148;;;-10.3;63.3
77469;BME280;66567;50.272;12.818;2023-02-08T02:40:14;98146;;;-10.3;63.9
77469;BME280;66567;50.272;12.818;2023-02-08T02:42:27;98147;;;-10.3;63.2
77469;BME280;66567;50.272;12.818;2023-02-08T02:44:09;98147;;;-10.3;63.7
77469;BME280;66567;50.272;12.818;2023-02-08T02:46:20;98144;;;-10.3;64.4
77469;BME280;66567;50.272;12.818;2023-02-08T02:48:12;98144;;;-10.3;64.4
77469;BME280;66567;50.272;12.818;2023-02-08T02:52:10;98136;;;-10.3;64.0
77469;BME280;66567;50.272;12.818;2023-02-08T02:54:12;98134;;;-10.3;64.0
77469;BME280;66567;50.272;12.818;2023-02-08T02:56:09;98129;;;-10.3;64.7
77469;BME280;66567;50.272;12.818;2023-02-08T02:58:05;98126;;;-10.3;64.6
77469;BME280;66567;50.272;12.818;2023-02-08T03:00:08;98124;;;-10.3;64.3
77469;BME280;66567;50.272;12.818;2023-02-08T03:02:05;98123;;;-10.3;64.2
77469;BME280;66567;50.272;12.818;2023-02-08T03:04:18;98123;;;-10.3;64.0
77469;BME280;66567;50.272;12.818;2023-02-08T03:06:10;98120;;;-10.3;64.1
77469;BME280;66567;50.272;12.818;2023-02-08T03:16:18;98116;;;-10.3;63.6
77469;BME280;66567;50.272;12.818;2023-02-08T03:20:09;98118;;;-10.3;65.7
77469;BME280;66567;50.272;12.818;2023-02-08T03:22:16;98118;;;-10.3;65.6
77469;BME280;66567;50.272;12.818;2023-02-08T03:26:11;98118;;;-10.2;65.7
77469;BME280;66567;50.272;12.818;2023-02-08T03:28:10;98116;;;-10.2;66.4
77469;BME280;66567;50.272;12.818;2023-02-08T03:30:16;98115;;;-10.1;67.8
77469;BME280;66567;50.272;12.818;2023-02-08T03:34:09;98111;;;-10.0;67.6
77469;BME280;66567;50.272;12.818;2023-02-08T03:36:09;98110;;;-10.0;66.4
77469;BME280;66567;50.272;12.818;2023-02-08T03:38:09;98114;;;-10.0;65.2
77469;BME280;66567;50.272;12.818;2023-02-08T03:42:10;98119;;;-10.0;64.7
77469;BME280;66567;50.272;12.818;2023-02-08T03:44:10;98118;;;-10.1;64.2
77469;BME280;66567;50.272;12.818;2023-02-08T03:46:13;98119;;;-10.1;63.7
77469;BME280;66567;50.272;12.818;2023-02-08T03:48:06;98121;;;-10.1;63.3
77469;BME280;66567;50.272;12.818;2023-02-08T03:50:07;98119;;;-10.2;63.6
77469;BME280;66567;50.272;12.818;2023-02-08T03:52:07;98122;;;-10.2;63.5
77469;BME280;66567;50.272;12.818;2023-02-08T03:54:08;98122;;;-10.2;64.1
77469;BME280;66567;50.272;12.818;2023-02-08T03:56:15;98119;;;-10.3;63.4
77469;BME280;66567;50.272;12.818;2023-02-08T03:58:31;98119;;;-10.3;62.9
77469;BME280;66567;50.272;12.818;2023-02-08T04:00:08;98121;;;-10.3;62.5
77469;BME280;66567;50.272;12.818;2023-02-08T04:02:07;98123;;;-10.4;62.8
77469;BME280;66567;50.272;12.818;2023-02-08T04:04:05;98123;;;-10.4;63.5
77469;BME280;66567;50.272;12.818;2023-02-08T04:06:05;98123;;;-10.4;64.2
77469;BME280;66567;50.272;12.818;2023-02-08T04:08:05;98121;;;-10.4;64.1
77469;BME280;66567;50.272;12.818;2023-02-08T04:10:05;98123;;;-10.4;64.1
77469;BME280;66567;50.272;12.818;2023-02-08T04:12:05;98125;;;-10.4;64.0
77469;BME280;66567;50.272;12.818;2023-02-08T04:14:05;98127;;;-10.5;63.3
77469;BME280;66567;50.272;12.818;2023-02-08T04:16:05;98129;;;-10.5;63.9
77469;BME280;66567;50.272;12.818;2023-02-08T04:18:05;98128;;;-10.5;63.6
77469;BME280;66567;50.272;12.818;2023-02-08T04:20:05;98124;;;-10.5;64.0
77469;BME280;66567;50.272;12.818;2023-02-08T04:22:05;98121;;;-10.5;63.0
77469;BME280;66567;50.272;12.818;2023-02-08T04:24:05;98124;;;-10.6;62.3
77469;BME280;66567;50.272;12.818;2023-02-08T04:26:07;98124;;;-10.6;62.1
77469;BME280;66567;50.272;12.818;2023-02-08T04:28:05;98124;;;-10.6;62.1
77469;BME280;66567;50.272;12.818;2023-02-08T04:30:05;98124;;;-10.7;62.3
77469;BME280;66567;50.272;12.818;2023-02-08T04:32:10;98124;;;-10.7;62.5
77469;BME280;66567;50.272;12.818;2023-02-08T04:34:05;98125;;;-10.7;63.4
77469;BME280;66567;50.272;12.818;2023-02-08T04:36:05;98124;;;-10.7;63.6
77469;BME280;66567;50.272;12.818;2023-02-08T04:38:05;98124;;;-10.7;63.9
77469;BME280;66567;50.272;12.818;2023-02-08T04:40:05;98125;;;-10.7;63.9
77469;BME280;66567;50.272;12.818;2023-02-08T04:42:05;98125;;;-10.7;64.4
77469;BME280;66567;50.272;12.818;2023-02-08T04:44:05;98127;;;-10.7;64.5
77469;BME280;66567;50.272;12.818;2023-02-08T04:46:05;98130;;;-10.7;64.6
77469;BME280;66567;50.272;12.818;2023-02-08T04:48:06;98133;;;-10.7;64.7
77469;BME280;66567;50.272;12.818;2023-02-08T04:50:05;98131;;;-10.7;63.9
77469;BME280;66567;50.272;12.818;2023-02-08T04:52:05;98131;;;-10.7;63.5
77469;BME280;66567;50.272;12.818;2023-02-08T04:54:05;98130;;;-10.8;63.1
77469;BME280;66567;50.272;12.818;2023-02-08T04:56:05;98132;;;-10.8;63.1
77469;BME280;66567;50.272;12.818;2023-02-08T04:58:05;98133;;;-10.8;63.0
77469;BME280;66567;50.272;12.818;2023-02-08T05:00:06;98131;;;-10.9;62.6
77469;BME280;66567;50.272;12.818;2023-02-08T05:02:05;98132;;;-10.9;62.4
77469;BME280;66567;50.272;12.818;2023-02-08T05:04:05;98136;;;-10.9;62.8
77469;BME280;66567;50.272;12.818;2023-02-08T05:06:05;98141;;;-10.9;62.4
77469;BME280;66567;50.272;12.818;2023-02-08T05:08:05;98142;;;-11.0;62.2
77469;BME280;66567;50.272;12.818;2023-02-08T05:10:06;98143;;;-11.0;61.7
77469;BME280;66567;50.272;12.818;2023-02-08T05:12:05;98139;;;-11.0;62.5
77469;BME280;66567;50.272;12.818;2023-02-08T05:14:05;98138;;;-11.1;62.2
77469;BME280;66567;50.272;12.818;2023-02-08T05:16:05;98140;;;-11.1;62.1
77469;BME280;66567;50.272;12.818;2023-02-08T05:18:05;98143;;;-11.1;62.0
77469;BME280;66567;50.272;12.818;2023-02-08T05:20:05;98145;;;-11.1;61.7
77469;BME280;66567;50.272;12.818;2023-02-08T05:22:05;98146;;;-11.2;61.6
77469;BME280;66567;50.272;12.818;2023-02-08T05:24:06;98145;;;-11.2;61.6
77469;BME280;66567;50.272;12.818;2023-02-08T05:26:06;98145;;;-11.2;61.6
77469;BME280;66567;50.272;12.818;2023-02-08T05:28:05;98148;;;-11.2;62.5
77469;BME280;66567;50.272;12.818;2023-02-08T05:30:06;98150;;;-11.2;62.8
77469;BME280;66567;50.272;12.818;2023-02-08T05:32:05;98148;;;-11.2;63.1
77469;BME280;66567;50.272;12.818;2023-02-08T05:34:05;98148;;;-11.2;63.3
77469;BME280;66567;50.272;12.818;2023-02-08T05:36:05;98149;;;-11.2;63.5
77469;BME280;66567;50.272;12.818;2023-02-08T05:38:05;98148;;;-11.3;63.5
77469;BME280;66567;50.272;12.818;2023-02-08T05:40:06;98150;;;-11.3;63.7
77469;BME280;66567;50.272;12.818;2023-02-08T05:42:05;98155;;;-11.3;63.5
77469;BME280;66567;50.272;12.818;2023-02-08T05:44:05;98158;;;-11.3;63.9
77469;BME280;66567;50.272;12.818;2023-02-08T05:46:05;98157;;;-11.3;63.8
77469;BME280;66567;50.272;12.818;2023-02-08T05:48:05;98157;;;-11.3;63.3
77469;BME280;66567;50.272;12.818;2023-02-08T05:50:05;98157;;;-11.3;62.9
77469;BME280;66567;50.272;12.818;2023-02-08T05:52:05;98160;;;-11.3;62.5
77469;BME280;66567;50.272;12.818;2023-02-08T05:54:05;98162;;;-11.3;62.4
77469;BME280;66567;50.272;12.818;2023-02-08T05:56:05;98161;;;-11.4;62.6
77469;BME280;66567;50.272;12.818;2023-02-08T05:58:05;98163;;;-11.4;63.1
77469;BME280;66567;50.272;12.818;2023-02-08T06:00:06;98164;;;-11.4;63.5
77469;BME280;66567;50.272;12.818;2023-02-08T06:04:05;98167;;;-11.4;63.0
77469;BME280;66567;50.272;12.818;2023-02-08T06:06:05;98166;;;-11.4;62.8
77469;BME280;66567;50.272;12.818;2023-02-08T06:08:05;98164;;;-11.4;62.5
77469;BME280;66567;50.272;12.818;2023-02-08T06:10:05;98163;;;-11.5;62.7
77469;BME280;66567;50.272;12.818;2023-02-08T06:12:06;98169;;;-11.5;63.1
77469;BME280;66567;50.272;12.818;2023-02-08T06:14:05;98172;;;-11.5;63.6
77469;BME280;66567;50.272;12.818;2023-02-08T06:16:05;98175;;;-11.5;65.8
77469;BME280;66567;50.272;12.818;2023-02-08T06:18:05;98174;;;-11.4;65.6
77469;BME280;66567;50.272;12.818;2023-02-08T06:20:05;98173;;;-11.4;64.5
77469;BME280;66567;50.272;12.818;2023-02-08T06:22:05;98172;;;-11.4;65.7
77469;BME280;66567;50.272;12.818;2023-02-08T06:24:05;98172;;;-11.4;67.4
77469;BME280;66567;50.272;12.818;2023-02-08T06:26:05;98178;;;-11.3;67.7
77469;BME280;66567;50.272;12.818;2023-02-08T06:28:05;98181;;;-11.2;67.6
77469;BME280;66567;50.272;12.818;2023-02-08T06:30:05;98183;;;-11.2;67.2
77469;BME280;66567;50.272;12.818;2023-02-08T06:32:05;98184;;;-11.2;67.4
77469;BME280;66567;50.272;12.818;2023-02-08T06:34:05;98181;;;-11.1;68.7
77469;BME280;66567;50.272;12.818;2023-02-08T06:36:05;98182;;;-11.1;69.6
77469;BME280;66567;50.272;12.818;2023-02-08T06:38:05;98184;;;-11.0;70.3
77469;BME280;66567;50.272;12.818;2023-02-08T06:40:05;98189;;;-10.9;71.5
77469;BME280;66567;50.272;12.818;2023-02-08T06:42:05;98190;;;-10.8;72.3
77469;BME280;66567;50.272;12.818;2023-02-08T06:44:05;98191;;;-10.7;72.8
77469;BME280;66567;50.272;12.818;2023-02-08T06:46:07;98192;;;-10.5;73.9
77469;BME280;66567;50.272;12.818;2023-02-08T06:48:05;98195;;;-10.4;74.4
77469;BME280;66567;50.272;12.818;2023-02-08T06:50:05;98198;;;-10.2;74.5
77469;BME280;66567;50.272;12.818;2023-02-08T06:52:05;98196;;;-10.1;74.3
77469;BME280;66567;50.272;12.818;2023-02-08T06:54:05;98192;;;-9.9;74.4
77469;BME280;66567;50.272;12.818;2023-02-08T06:56:05;98191;;;-9.8;74.5
77469;BME280;66567;50.272;12.818;2023-02-08T06:58:05;98190;;;-9.6;75.0
77469;BME280;66567;50.272;12.818;2023-02-08T07:00:05;98193;;;-9.5;75.4
77469;BME280;66567;50.272;12.818;2023-02-08T07:02:07;98196;;;-9.3;75.5
77469;BME280;66567;50.272;12.818;2023-02-08T07:04:05;98199;;;-9.2;75.7
77469;BME280;66567;50.272;12.818;2023-02-08T07:06:10;98200;;;-9.0;75.9
77469;BME280;66567;50.272;12.818;2023-02-08T07:08:06;98203;;;-8.9;76.1
77469;BME280;66567;50.272;12.818;2023-02-08T07:10:05;98204;;;-8.8;76.1
77469;BME280;66567;50.272;12.818;2023-02-08T07:12:05;98208;;;-8.6;76.2
77469;BME280;66567;50.272;12.818;2023-02-08T07:14:05;98206;;;-8.5;76.4
77469;BME280;66567;50.272;12.818;2023-02-08T07:16:05;98205;;;-8.4;76.9
77469;BME280;66567;50.272;12.818;2023-02-08T07:18:05;98205;;;-8.3;77.4
77469;BME280;66567;50.272;12.818;2023-02-08T07:20:05;98204;;;-8.1;77.6
77469;BME280;66567;50.272;12.818;2023-02-08T07:22:07;98207;;;-8.0;77.7
77469;BME280;66567;50.272;12.818;2023-02-08T07:24:05;98208;;;-7.9;77.8
77469;BME280;66567;50.272;12.818;2023-02-08T07:26:08;98210;;;-7.7;77.7
77469;BME280;66567;50.272;12.818;2023-02-08T07:28:05;98212;;;-7.6;77.7
77469;BME280;66567;50.272;12.818;2023-02-08T07:30:07;98218;;;-7.5;77.6
77469;BME280;66567;50.272;12.818;2023-02-08T07:32:06;98218;;;-7.4;77.6
77469;BME280;66567;50.272;12.818;2023-02-08T07:34:05;98221;;;-7.4;77.5
77469;BME280;66567;50.272;12.818;2023-02-08T07:36:06;98223;;;-7.3;77.4
77469;BME280;66567;50.272;12.818;2023-02-08T07:38:05;98221;;;-7.2;77.3
77469;BME280;66567;50.272;12.818;2023-02-08T07:40:05;98217;;;-7.2;77.2
77469;BME280;66567;50.272;12.818;2023-02-08T07:42:06;98217;;;-7.1;77.0
77469;BME280;66567;50.272;12.818;2023-02-08T07:44:05;98215;;;-7.1;76.9
77469;BME280;66567;50.272;12.818;2023-02-08T07:48:05;98214;;;-7.0;76.7
77469;BME280;66567;50.272;12.818;2023-02-08T07:50:05;98214;;;-6.9;76.6
77469;BME280;66567;50.272;12.818;2023-02-08T07:52:05;98213;;;-6.9;76.5
77469;BME280;66567;50.272;12.818;2023-02-08T07:54:05;98211;;;-6.8;76.4
77469;BME280;66567;50.272;12.818;2023-02-08T07:56:05;98211;;;-6.7;76.3
77469;BME280;66567;50.272;12.818;2023-02-08T07:58:05;98210;;;-6.7;76.2
77469;BME280;66567;50.272;12.818;2023-02-08T08:00:05;98210;;;-6.6;76.1
77469;BME280;66567;50.272;12.818;2023-02-08T08:02:05;98206;;;-6.5;76.0
77469;BME280;66567;50.272;12.818;2023-02-08T08:04:05;98204;;;-6.4;75.8
77469;BME280;66567;50.272;12.818;2023-02-08T08:06:05;98200;;;-6.3;75.4
77469;BME280;66567;50.272;12.818;2023-02-08T08:08:05;98198;;;-6.2;75.1
77469;BME280;66567;50.272;12.818;2023-02-08T08:10:05;98197;;;-6.1;74.7
77469;BME280;66567;50.272;12.818;2023-02-08T08:12:05;98199;;;-6.0;74.5
77469;BME280;66567;50.272;12.818;2023-02-08T08:14:05;98200;;;-5.9;74.1
77469;BME280;66567;50.272;12.818;2023-02-08T08:16:05;98198;;;-5.8;73.7
77469;BME280;66567;50.272;12.818;2023-02-08T08:18:05;98196;;;-5.7;73.4
77469;BME280;66567;50.272;12.818;2023-02-08T08:20:05;98194;;;-5.6;73.5
77469;BME280;66567;50.272;12.818;2023-02-08T08:22:05;98198;;;-5.4;72.8
77469;BME280;66567;50.272;12.818;2023-02-08T08:24:05;98196;;;-5.2;72.5
77469;BME280;66567;50.272;12.818;2023-02-08T08:26:08;98194;;;-5.0;72.2
77469;BME280;66567;50.272;12.818;2023-02-08T08:28:05;98194;;;-4.8;71.6
77469;BME280;66567;50.272;12.818;2023-02-08T08:30:07;98190;;;-4.7;70.6
77469;BME280;66567;50.272;12.818;2023-02-08T08:32:06;98188;;;-4.6;70.7
77469;BME280;66567;50.272;12.818;2023-02-08T08:34:05;98190;;;-4.5;70.0
77469;BME280;66567;50.272;12.818;2023-02-08T08:36:06;98190;;;-4.5;69.6
77469;BME280;66567;50.272;12.818;2023-02-08T08:38:05;98190;;;-4.4;69.5
77469;BME280;66567;50.272;12.818;2023-02-08T08:40:06;98190;;;-4.4;69.8
77469;BME280;66567;50.272;12.818;2023-02-08T08:42:05;98189;;;-4.2;69.2
77469;BME280;66567;50.272;12.818;2023-02-08T08:44:05;98190;;;-4.1;68.6
77469;BME280;66567;50.272;12.818;2023-02-08T08:46:06;98191;;;-4.0;68.1
77469;BME280;66567;50.272;12.818;2023-02-08T08:48:05;98191;;;-3.9;68.2
77469;BME280;66567;50.272;12.818;2023-02-08T08:50:05;98190;;;-3.8;67.5
77469;BME280;66567;50.272;12.818;2023-02-08T08:52:07;98191;;;-3.7;67.8
77469;BME280;66567;50.272;12.818;2023-02-08T08:54:05;98190;;;-3.6;67.8
77469;BME280;66567;50.272;12.818;2023-02-08T08:56:05;98194;;;-3.4;67.3
77469;BME280;66567;50.272;12.818;2023-02-08T08:58:05;98196;;;-3.0;67.0
77469;BME280;66567;50.272;12.818;2023-02-08T09:00:05;98193;;;-2.7;65.2
77469;BME280;66567;50.272;12.818;2023-02-08T09:02:05;98190;;;-2.5;65.1
77469;BME280;66567;50.272;12.818;2023-02-08T09:04:05;98187;;;-2.2;64.2
77469;BME280;66567;50.272;12.818;2023-02-08T09:06:05;98185;;;-2.0;63.2
77469;BME280;66567;50.272;12.818;2023-02-08T09:08:05;98184;;;-1.9;62.3
77469;BME280;66567;50.272;12.818;2023-02-08T09:10:05;98184;;;-1.9;62.5
77469;BME280;66567;50.272;12.818;2023-02-08T09:12:05;98191;;;-1.9;61.7
77469;BME280;66567;50.272;12.818;2023-02-08T09:14:05;98192;;;-1.9;60.6
77469;BME280;66567;50.272;12.818;2023-02-08T09:16:07;98193;;;-2.0;61.0
77469;BME280;66567;50.272;12.818;2023-02-08T09:18:05;98196;;;-1.9;60.5
77469;BME280;66567;50.272;12.818;2023-02-08T09:20:05;98197;;;-1.9;61.0
77469;BME280;66567;50.272;12.818;2023-02-08T09:22:06;98198;;;-1.8;59.8
77469;BME280;66567;50.272;12.818;2023-02-08T09:24:05;98199;;;-1.8;59.8
77469;BME280;66567;50.272;12.818;2023-02-08T09:26:08;98204;;;-1.7;59.9
77469;BME280;66567;50.272;12.818;2023-02-08T09:28:06;98208;;;-1.7;59.8
77469;BME280;66567;50.272;12.818;2023-02-08T09:30:05;98213;;;-1.6;59.4
77469;BME280;66567;50.272;12.818;2023-02-08T09:32:05;98213;;;-1.4;59.3
77469;BME280;66567;50.272;12.818;2023-02-08T09:34:05;98218;;;-1.3;58.1
77469;BME280;66567;50.272;12.818;2023-02-08T09:36:05;98218;;;-1.3;58.0
77469;BME280;66567;50.272;12.818;2023-02-08T09:38:05;98218;;;-1.3;58.5
77469;BME280;66567;50.272;12.818;2023-02-08T09:40:05;98219;;;-1.1;57.8
77469;BME280;66567;50.272;12.818;2023-02-08T09:42:10;98218;;;-1.2;57.5
77469;BME280;66567;50.272;12.818;2023-02-08T09:46:10;98223;;;-1.2;58.5
77469;BME280;66567;50.272;12.818;2023-02-08T09:52:10;98228;;;-1.1;57.1
77469;BME280;66567;50.272;12.818;2023-02-08T09:54:06;98229;;;-1.3;57.0
77469;BME280;66567;50.272;12.818;2023-02-08T09:56:08;98230;;;-1.5;57.3
77469;BME280;66567;50.272;12.818;2023-02-08T09:58:16;98230;;;-1.7;57.9
77469;BME280;66567;50.272;12.818;2023-02-08T10:00:11;98234;;;-1.8;58.3
77469;BME280;66567;50.272;12.818;2023-02-08T10:04:11;98232;;;-1.9;59.4
77469;BME280;66567;50.272;12.818;2023-02-08T10:06:08;98233;;;-1.8;60.0
77469;BME280;66567;50.272;12.818;2023-02-08T10:08:07;98234;;;-1.8;59.9
77469;BME280;66567;50.272;12.818;2023-02-08T10:10:07;98233;;;-1.8;60.0
77469;BME280;66567;50.272;12.818;2023-02-08T10:16:13;98224;;;-1.8;60.3
77469;BME280;66567;50.272;12.818;2023-02-08T10:20:23;98227;;;-1.7;60.6
77469;BME280;66567;50.272;12.818;2023-02-08T10:26:11;98229;;;-0.9;58.5
77469;BME280;66567;50.272;12.818;2023-02-08T10:36:16;98235;;;-0.7;56.2
77469;BME280;66567;50.272;12.818;2023-02-08T10:38:18;98238;;;-0.9;56.3
77469;BME280;66567;50.272;12.818;2023-02-08T10:42:11;98227;;;-1.5;56.8
77469;BME280;66567;50.272;12.818;2023-02-08T10:46:19;98217;;;-1.8;58.6
77469;BME280;66567;50.272;12.818;2023-02-08T10:48:12;98211;;;-1.8;59.7
77469;BME280;66567;50.272;12.818;2023-02-08T10:52:05;98207;;;-1.3;59.4
77469;BME280;66567;50.272;12.818;2023-02-08T10:54:05;98205;;;-1.0;58.9
77469;BME280;66567;50.272;12.818;2023-02-08T10:56:05;98205;;;-0.6;58.3
77469;BME280;66567;50.272;12.818;2023-02-08T10:58:06;98203;;;-0.3;57.8
77469;BME280;66567;50.272;12.818;2023-02-08T11:00:09;98197;;;0.1;57.0
77469;BME280;66567;50.272;12.818;2023-02-08T11:04:08;98195;;;0.6;54.8
77469;BME280;66567;50.272;12.818;2023-02-08T11:06:07;98197;;;0.7;54.5
77469;BME280;66567;50.272;12.818;2023-02-08T11:08:07;98199;;;0.8;53.5
77469;BME280;66567;50.272;12.818;2023-02-08T11:12:05;98192;;;0.9;53.2
77469;BME280;66567;50.272;12.818;2023-02-08T11:14:08;98189;;;1.0;53.0
77469;BME280;66567;50.272;12.818;2023-02-08T11:16:06;98191;;;1.2;52.6
77469;BME280;66567;50.272;12.818;2023-02-08T11:18:05;98187;;;1.3;52.3
77469;BME280;66567;50.272;12.818;2023-02-08T11:20:05;98181;;;1.4;52.1
77469;BME280;66567;50.272;12.818;2023-02-08T11:22:05;98180;;;1.5;51.3
77469;BME280;66567;50.272;12.818;2023-02-08T11:26:20;98171;;;1.4;51.1
77469;BME280;66567;50.272;12.818;2023-02-08T11:28:08;98170;;;1.4;51.1
77469;BME280;66567;50.272;12.818;2023-02-08T11:32:15;98166;;;1.3;51.4
77469;BME280;66567;50.272;12.818;2023-02-08T11:34:10;98162;;;1.2;51.6
77469;BME280;66567;50.272;12.818;2023-02-08T11:36:06;98158;;;1.2;51.6
77469;BME280;66567;50.272;12.818;2023-02-08T11:38:05;98152;;;1.3;51.5
77469;BME280;66567;50.272;12.818;2023-02-08T11:40:05;98153;;;1.4;51.3
77469;BME280;66567;50.272;12.818;2023-02-08T11:42:05;98148;;;1.4;49.8
77469;BME280;66567;50.272;12.818;2023-02-08T11:44:05;98146;;;1.4;50.4
77469;BME280;66567;50.272;12.818;2023-02-08T11:46:05;98139;;;1.5;49.6
77469;BME280;66567;50.272;12.818;2023-02-08T11:48:05;98139;;;1.5;49.8
77469;BME280;66567;50.272;12.818;2023-02-08T11:50:06;98138;;;1.6;50.4
77469;BME280;66567;50.272;12.818;2023-02-08T11:52:07;98138;;;1.8;49.7
77469;BME280;66567;50.272;12.818;2023-02-08T11:54:05;98135;;;1.8;49.8
77469;BME280;66567;50.272;12.818;2023-02-08T11:56:16;98137;;;1.8;49.3
77469;BME280;66567;50.272;12.818;2023-02-08T11:58:17;98134;;;1.8;49.5
77469;BME280;66567;50.272;12.818;2023-02-08T12:00:18;98126;;;1.9;49.9
77469;BME280;66567;50.272;12.818;2023-02-08T12:04:08;98125;;;2.3;49.5
77469;BME280;66567;50.272;12.818;2023-02-08T12:10:18;98120;;;2.5;47.4
77469;BME280;66567;50.272;12.818;2023-02-08T12:12:30;98118;;;2.6;47.6
77469;BME280;66567;50.272;12.818;2023-02-08T12:20:12;98104;;;2.4;47.1
77469;BME280;66567;50.272;12.818;2023-02-08T12:22:09;98100;;;2.2;47.3
77469;BME280;66567;50.272;12.818;2023-02-08T12:24:28;98095;;;2.0;47.6
77469;BME280;66567;50.272;12.818;2023-02-08T12:30:14;98092;;;1.9;47.4
77469;BME280;66567;50.272;12.818;2023-02-08T12:34:32;98087;;;2.0;47.0
77469;BME280;66567;50.272;12.818;2023-02-08T12:38:58;98076;;;2.0;46.6
77469;BME280;66567;50.272;12.818;2023-02-08T12:42:44;98076;;;2.0;46.8
77469;BME280;66567;50.272;12.818;2023-02-08T12:44:18;98077;;;2.1;46.5